sensor_id;sensor_type;location;lat;lon;timestamp;P1;durP1;ratioP1;P2;durP2;ratioP2
23658;SDS011;12006;42.666;23.326;2022-08-03T00:01:01;1.27;;;0.90;;
23658;SDS011;12006;42.666;23.326;2022-08-03T00:03:26;1.70;;;1.23;;
23658;SDS011;12006;42.666;23.326;2022-08-03T00:05:51;1.17;;;1.17;;
23658;SDS011;12006;42.666;23.326;2022-08-03T00:08:17;0.88;;;0.85;;
23658;SDS011;12006;42.666;23.326;2022-08-03T00:10:42;0.70;;;0.70;;
23658;SDS011;12006;42.666;23.326;2022-08-03T00:13:07;1.45;;;0.98;;
23658;SDS011;12006;42.666;23.326;2022-08-03T00:15:33;0.70;;;0.70;;
23658;SDS011;12006;42.666;23.326;2022-08-03T00:17:58;1.45;;;1.13;;
23658;SDS011;12006;42.666;23.326;2022-08-03T00:20:23;1.10;;;0.70;;
23658;SDS011;12006;42.666;23.326;2022-08-03T00:22:49;1.00;;;0.80;;
23658;SDS011;12006;42.666;23.326;2022-08-03T00:25:14;0.75;;;0.73;;
23658;SDS011;12006;42.666;23.326;2022-08-03T00:27:40;1.10;;;1.00;;
23658;SDS011;12006;42.666;23.326;2022-08-03T00:30:05;0.60;;;0.60;;
23658;SDS011;12006;42.666;23.326;2022-08-03T00:32:31;0.70;;;0.70;;
23658;SDS011;12006;42.666;23.326;2022-08-03T00:34:56;0.70;;;0.70;;
23658;SDS011;12006;42.666;23.326;2022-08-03T00:37:21;1.35;;;0.88;;
23658;SDS011;12006;42.666;23.326;2022-08-03T00:39:46;0.93;;;0.70;;
23658;SDS011;12006;42.666;23.326;2022-08-03T00:42:12;0.50;;;0.50;;
23658;SDS011;12006;42.666;23.326;2022-08-03T00:44:38;1.00;;;0.82;;
23658;SDS011;12006;42.666;23.326;2022-08-03T00:47:03;0.90;;;0.80;;
23658;SDS011;12006;42.666;23.326;2022-08-03T00:49:29;1.20;;;0.90;;
23658;SDS011;12006;42.666;23.326;2022-08-03T00:51:54;0.75;;;0.75;;
23658;SDS011;12006;42.666;23.326;2022-08-03T00:54:20;1.58;;;1.33;;
23658;SDS011;12006;42.666;23.326;2022-08-03T00:56:45;0.90;;;0.90;;
23658;SDS011;12006;42.666;23.326;2022-08-03T00:59:11;0.90;;;0.90;;
23658;SDS011;12006;42.666;23.326;2022-08-03T01:01:36;0.70;;;0.70;;
23658;SDS011;12006;42.666;23.326;2022-08-03T01:04:02;0.60;;;0.60;;
23658;SDS011;12006;42.666;23.326;2022-08-03T01:06:35;0.73;;;0.73;;
23658;SDS011;12006;42.666;23.326;2022-08-03T01:09:08;1.30;;;1.00;;
23658;SDS011;12006;42.666;23.326;2022-08-03T01:19:11;1.50;;;0.60;;
23658;SDS011;12006;42.666;23.326;2022-08-03T01:27:13;0.70;;;0.70;;
23658;SDS011;12006;42.666;23.326;2022-08-03T01:32:20;0.85;;;0.80;;
23658;SDS011;12006;42.666;23.326;2022-08-03T01:34:47;0.93;;;0.93;;
23658;SDS011;12006;42.666;23.326;2022-08-03T01:37:17;0.82;;;0.82;;
23658;SDS011;12006;42.666;23.326;2022-08-03T01:39:45;0.85;;;0.85;;
23658;SDS011;12006;42.666;23.326;2022-08-03T01:42:11;0.65;;;0.65;;
23658;SDS011;12006;42.666;23.326;2022-08-03T01:44:39;0.90;;;0.82;;
23658;SDS011;12006;42.666;23.326;2022-08-03T01:47:05;0.52;;;0.52;;
23658;SDS011;12006;42.666;23.326;2022-08-03T01:49:32;0.60;;;0.60;;
23658;SDS011;12006;42.666;23.326;2022-08-03T01:51:59;0.70;;;0.70;;
23658;SDS011;12006;42.666;23.326;2022-08-03T01:54:25;0.80;;;0.80;;
23658;SDS011;12006;42.666;23.326;2022-08-03T01:56:52;0.98;;;0.98;;
23658;SDS011;12006;42.666;23.326;2022-08-03T01:59:18;0.85;;;0.70;;
23658;SDS011;12006;42.666;23.326;2022-08-03T02:01:44;0.80;;;0.80;;
23658;SDS011;12006;42.666;23.326;2022-08-03T02:04:11;0.80;;;0.80;;
23658;SDS011;12006;42.666;23.326;2022-08-03T02:06:37;1.17;;;1.08;;
23658;SDS011;12006;42.666;23.326;2022-08-03T02:09:03;1.55;;;1.00;;
23658;SDS011;12006;42.666;23.326;2022-08-03T02:11:30;0.60;;;0.60;;
23658;SDS011;12006;42.666;23.326;2022-08-03T02:13:57;0.65;;;0.65;;
23658;SDS011;12006;42.666;23.326;2022-08-03T02:16:24;0.45;;;0.45;;
23658;SDS011;12006;42.666;23.326;2022-08-03T02:18:50;0.75;;;0.75;;
23658;SDS011;12006;42.666;23.326;2022-08-03T02:21:16;0.82;;;0.82;;
23658;SDS011;12006;42.666;23.326;2022-08-03T02:23:41;1.25;;;1.23;;
23658;SDS011;12006;42.666;23.326;2022-08-03T02:26:11;0.73;;;0.73;;
23658;SDS011;12006;42.666;23.326;2022-08-03T02:28:40;0.82;;;0.80;;
23658;SDS011;12006;42.666;23.326;2022-08-03T02:31:10;0.63;;;0.63;;
23658;SDS011;12006;42.666;23.326;2022-08-03T02:33:37;0.63;;;0.60;;
23658;SDS011;12006;42.666;23.326;2022-08-03T02:36:03;0.57;;;0.57;;
23658;SDS011;12006;42.666;23.326;2022-08-03T02:38:32;1.02;;;0.90;;
23658;SDS011;12006;42.666;23.326;2022-08-03T02:40:58;1.33;;;1.23;;
23658;SDS011;12006;42.666;23.326;2022-08-03T02:43:25;1.10;;;0.85;;
23658;SDS011;12006;42.666;23.326;2022-08-03T02:45:51;0.68;;;0.68;;
23658;SDS011;12006;42.666;23.326;2022-08-03T02:48:18;0.60;;;0.60;;
23658;SDS011;12006;42.666;23.326;2022-08-03T02:50:44;3.03;;;1.10;;
23658;SDS011;12006;42.666;23.326;2022-08-03T02:53:10;0.77;;;0.70;;
23658;SDS011;12006;42.666;23.326;2022-08-03T02:55:36;1.92;;;1.15;;
23658;SDS011;12006;42.666;23.326;2022-08-03T02:58:02;3.63;;;1.15;;
23658;SDS011;12006;42.666;23.326;2022-08-03T03:00:30;1.38;;;1.27;;
23658;SDS011;12006;42.666;23.326;2022-08-03T03:02:56;1.25;;;1.15;;
23658;SDS011;12006;42.666;23.326;2022-08-03T03:05:22;2.25;;;1.33;;
23658;SDS011;12006;42.666;23.326;2022-08-03T03:07:47;1.40;;;1.25;;
23658;SDS011;12006;42.666;23.326;2022-08-03T03:10:13;1.75;;;1.38;;
23658;SDS011;12006;42.666;23.326;2022-08-03T03:12:38;1.42;;;1.33;;
23658;SDS011;12006;42.666;23.326;2022-08-03T03:15:05;1.52;;;1.42;;
23658;SDS011;12006;42.666;23.326;2022-08-03T03:17:31;1.15;;;1.10;;
23658;SDS011;12006;42.666;23.326;2022-08-03T03:19:57;1.33;;;1.23;;
23658;SDS011;12006;42.666;23.326;2022-08-03T03:22:22;1.30;;;1.20;;
23658;SDS011;12006;42.666;23.326;2022-08-03T03:24:48;1.23;;;1.13;;
23658;SDS011;12006;42.666;23.326;2022-08-03T03:27:15;1.58;;;1.48;;
23658;SDS011;12006;42.666;23.326;2022-08-03T03:29:41;1.63;;;1.50;;
23658;SDS011;12006;42.666;23.326;2022-08-03T03:32:07;1.55;;;1.45;;
23658;SDS011;12006;42.666;23.326;2022-08-03T03:34:32;1.83;;;1.73;;
23658;SDS011;12006;42.666;23.326;2022-08-03T03:36:57;1.83;;;1.40;;
23658;SDS011;12006;42.666;23.326;2022-08-03T03:39:23;1.83;;;1.57;;
23658;SDS011;12006;42.666;23.326;2022-08-03T03:41:48;1.60;;;1.50;;
23658;SDS011;12006;42.666;23.326;2022-08-03T03:44:13;1.90;;;1.60;;
23658;SDS011;12006;42.666;23.326;2022-08-03T03:46:39;2.75;;;1.80;;
23658;SDS011;12006;42.666;23.326;2022-08-03T03:49:05;2.00;;;1.80;;
23658;SDS011;12006;42.666;23.326;2022-08-03T03:51:31;1.92;;;1.80;;
23658;SDS011;12006;42.666;23.326;2022-08-03T03:53:57;1.80;;;1.70;;
23658;SDS011;12006;42.666;23.326;2022-08-03T03:56:22;1.90;;;1.80;;
23658;SDS011;12006;42.666;23.326;2022-08-03T03:58:48;1.95;;;1.85;;
23658;SDS011;12006;42.666;23.326;2022-08-03T04:01:13;3.22;;;2.22;;
23658;SDS011;12006;42.666;23.326;2022-08-03T04:03:39;5.78;;;1.65;;
23658;SDS011;12006;42.666;23.326;2022-08-03T04:06:04;1.50;;;1.40;;
23658;SDS011;12006;42.666;23.326;2022-08-03T04:08:48;2.33;;;2.03;;
23658;SDS011;12006;42.666;23.326;2022-08-03T04:11:37;1.70;;;1.60;;
23658;SDS011;12006;42.666;23.326;2022-08-03T04:14:11;1.75;;;1.63;;
23658;SDS011;12006;42.666;23.326;2022-08-03T04:16:37;1.50;;;1.40;;
23658;SDS011;12006;42.666;23.326;2022-08-03T04:19:07;3.05;;;1.70;;
23658;SDS011;12006;42.666;23.326;2022-08-03T04:21:34;2.10;;;1.90;;
23658;SDS011;12006;42.666;23.326;2022-08-03T04:24:02;1.70;;;1.60;;
23658;SDS011;12006;42.666;23.326;2022-08-03T04:26:29;1.40;;;1.25;;
23658;SDS011;12006;42.666;23.326;2022-08-03T04:28:55;2.45;;;2.28;;
23658;SDS011;12006;42.666;23.326;2022-08-03T04:31:21;2.47;;;2.20;;
23658;SDS011;12006;42.666;23.326;2022-08-03T04:33:48;1.75;;;1.65;;
23658;SDS011;12006;42.666;23.326;2022-08-03T04:36:15;1.67;;;1.58;;
23658;SDS011;12006;42.666;23.326;2022-08-03T04:38:43;6.03;;;3.20;;
23658;SDS011;12006;42.666;23.326;2022-08-03T04:41:16;2.25;;;2.05;;
23658;SDS011;12006;42.666;23.326;2022-08-03T04:43:42;3.00;;;2.30;;
23658;SDS011;12006;42.666;23.326;2022-08-03T04:46:07;2.65;;;2.15;;
23658;SDS011;12006;42.666;23.326;2022-08-03T04:48:33;4.70;;;3.13;;
23658;SDS011;12006;42.666;23.326;2022-08-03T04:50:58;3.45;;;2.40;;
23658;SDS011;12006;42.666;23.326;2022-08-03T04:53:24;3.13;;;1.95;;
23658;SDS011;12006;42.666;23.326;2022-08-03T04:55:50;2.47;;;2.17;;
23658;SDS011;12006;42.666;23.326;2022-08-03T04:58:15;4.20;;;2.47;;
23658;SDS011;12006;42.666;23.326;2022-08-03T05:00:40;3.35;;;2.30;;
23658;SDS011;12006;42.666;23.326;2022-08-03T05:03:06;2.30;;;1.58;;
23658;SDS011;12006;42.666;23.326;2022-08-03T05:05:32;2.20;;;1.85;;
23658;SDS011;12006;42.666;23.326;2022-08-03T05:07:57;1.98;;;1.73;;
23658;SDS011;12006;42.666;23.326;2022-08-03T05:10:22;1.20;;;1.20;;
23658;SDS011;12006;42.666;23.326;2022-08-03T05:12:47;3.03;;;1.80;;
23658;SDS011;12006;42.666;23.326;2022-08-03T05:15:15;1.55;;;1.45;;
23658;SDS011;12006;42.666;23.326;2022-08-03T05:17:40;1.85;;;1.70;;
23658;SDS011;12006;42.666;23.326;2022-08-03T05:20:06;1.38;;;1.27;;
23658;SDS011;12006;42.666;23.326;2022-08-03T05:22:31;1.60;;;1.50;;
23658;SDS011;12006;42.666;23.326;2022-08-03T05:24:57;2.20;;;2.00;;
23658;SDS011;12006;42.666;23.326;2022-08-03T05:27:22;1.42;;;1.33;;
23658;SDS011;12006;42.666;23.326;2022-08-03T05:29:48;3.17;;;2.08;;
23658;SDS011;12006;42.666;23.326;2022-08-03T05:32:13;2.50;;;2.30;;
23658;SDS011;12006;42.666;23.326;2022-08-03T05:34:39;1.83;;;1.67;;
23658;SDS011;12006;42.666;23.326;2022-08-03T05:37:04;2.30;;;2.10;;
23658;SDS011;12006;42.666;23.326;2022-08-03T05:39:31;1.60;;;1.50;;
23658;SDS011;12006;42.666;23.326;2022-08-03T05:41:56;1.70;;;1.60;;
23658;SDS011;12006;42.666;23.326;2022-08-03T05:44:21;2.53;;;1.83;;
23658;SDS011;12006;42.666;23.326;2022-08-03T05:46:49;1.20;;;1.10;;
23658;SDS011;12006;42.666;23.326;2022-08-03T05:49:14;1.65;;;1.52;;
23658;SDS011;12006;42.666;23.326;2022-08-03T05:51:40;2.15;;;1.63;;
23658;SDS011;12006;42.666;23.326;2022-08-03T05:54:05;2.38;;;1.63;;
23658;SDS011;12006;42.666;23.326;2022-08-03T05:56:31;1.60;;;1.50;;
23658;SDS011;12006;42.666;23.326;2022-08-03T05:58:56;2.42;;;1.55;;
23658;SDS011;12006;42.666;23.326;2022-08-03T06:01:21;4.38;;;1.98;;
23658;SDS011;12006;42.666;23.326;2022-08-03T06:03:47;1.50;;;1.20;;
23658;SDS011;12006;42.666;23.326;2022-08-03T06:06:12;1.75;;;1.65;;
23658;SDS011;12006;42.666;23.326;2022-08-03T06:08:38;3.63;;;1.55;;
23658;SDS011;12006;42.666;23.326;2022-08-03T06:11:04;1.50;;;1.40;;
23658;SDS011;12006;42.666;23.326;2022-08-03T06:13:29;1.50;;;1.40;;
23658;SDS011;12006;42.666;23.326;2022-08-03T06:15:55;3.03;;;1.70;;
23658;SDS011;12006;42.666;23.326;2022-08-03T06:18:20;2.35;;;1.73;;
23658;SDS011;12006;42.666;23.326;2022-08-03T06:20:45;1.70;;;1.60;;
23658;SDS011;12006;42.666;23.326;2022-08-03T06:23:11;1.63;;;1.33;;
23658;SDS011;12006;42.666;23.326;2022-08-03T06:25:36;2.58;;;1.70;;
23658;SDS011;12006;42.666;23.326;2022-08-03T06:28:01;1.92;;;1.60;;
23658;SDS011;12006;42.666;23.326;2022-08-03T06:30:27;2.75;;;1.85;;
23658;SDS011;12006;42.666;23.326;2022-08-03T06:32:53;2.53;;;1.33;;
23658;SDS011;12006;42.666;23.326;2022-08-03T06:35:18;3.85;;;1.85;;
23658;SDS011;12006;42.666;23.326;2022-08-03T06:37:45;2.13;;;1.88;;
23658;SDS011;12006;42.666;23.326;2022-08-03T06:40:11;3.05;;;2.83;;
23658;SDS011;12006;42.666;23.326;2022-08-03T06:42:36;1.88;;;1.70;;
23658;SDS011;12006;42.666;23.326;2022-08-03T06:45:02;2.08;;;1.40;;
23658;SDS011;12006;42.666;23.326;2022-08-03T06:47:28;1.83;;;1.63;;
23658;SDS011;12006;42.666;23.326;2022-08-03T06:49:53;2.20;;;1.80;;
23658;SDS011;12006;42.666;23.326;2022-08-03T06:52:18;1.35;;;1.25;;
23658;SDS011;12006;42.666;23.326;2022-08-03T06:54:43;1.77;;;1.45;;
23658;SDS011;12006;42.666;23.326;2022-08-03T06:57:09;2.10;;;1.95;;
23658;SDS011;12006;42.666;23.326;2022-08-03T06:59:35;1.98;;;1.85;;
23658;SDS011;12006;42.666;23.326;2022-08-03T07:02:01;1.85;;;1.73;;
23658;SDS011;12006;42.666;23.326;2022-08-03T07:04:26;1.60;;;1.50;;
23658;SDS011;12006;42.666;23.326;2022-08-03T07:06:52;1.48;;;1.38;;
23658;SDS011;12006;42.666;23.326;2022-08-03T07:09:18;2.05;;;1.90;;
23658;SDS011;12006;42.666;23.326;2022-08-03T07:11:43;1.73;;;1.50;;
23658;SDS011;12006;42.666;23.326;2022-08-03T07:14:08;1.63;;;1.52;;
23658;SDS011;12006;42.666;23.326;2022-08-03T07:16:34;2.03;;;1.73;;
23658;SDS011;12006;42.666;23.326;2022-08-03T07:18:59;4.97;;;2.08;;
23658;SDS011;12006;42.666;23.326;2022-08-03T07:21:24;2.72;;;1.98;;
23658;SDS011;12006;42.666;23.326;2022-08-03T07:23:50;2.28;;;2.00;;
23658;SDS011;12006;42.666;23.326;2022-08-03T07:26:15;2.15;;;1.95;;
23658;SDS011;12006;42.666;23.326;2022-08-03T07:28:40;2.35;;;1.77;;
23658;SDS011;12006;42.666;23.326;2022-08-03T07:31:06;1.73;;;1.63;;
23658;SDS011;12006;42.666;23.326;2022-08-03T07:33:31;2.63;;;2.05;;
23658;SDS011;12006;42.666;23.326;2022-08-03T07:35:57;1.52;;;1.42;;
23658;SDS011;12006;42.666;23.326;2022-08-03T07:38:22;3.78;;;2.58;;
23658;SDS011;12006;42.666;23.326;2022-08-03T07:40:47;3.72;;;1.90;;
23658;SDS011;12006;42.666;23.326;2022-08-03T07:43:13;1.65;;;1.55;;
23658;SDS011;12006;42.666;23.326;2022-08-03T07:45:38;1.35;;;1.25;;
23658;SDS011;12006;42.666;23.326;2022-08-03T07:48:03;1.55;;;1.45;;
23658;SDS011;12006;42.666;23.326;2022-08-03T07:50:29;2.78;;;1.63;;
23658;SDS011;12006;42.666;23.326;2022-08-03T07:52:54;1.48;;;1.38;;
23658;SDS011;12006;42.666;23.326;2022-08-03T07:55:22;1.77;;;1.45;;
23658;SDS011;12006;42.666;23.326;2022-08-03T07:58:07;2.25;;;1.70;;
23658;SDS011;12006;42.666;23.326;2022-08-03T08:00:34;5.82;;;1.80;;
23658;SDS011;12006;42.666;23.326;2022-08-03T08:02:59;3.15;;;1.45;;
23658;SDS011;12006;42.666;23.326;2022-08-03T08:05:25;1.30;;;1.20;;
23658;SDS011;12006;42.666;23.326;2022-08-03T08:07:50;1.73;;;1.63;;
23658;SDS011;12006;42.666;23.326;2022-08-03T08:10:16;1.73;;;1.42;;
23658;SDS011;12006;42.666;23.326;2022-08-03T08:12:41;1.73;;;1.63;;
23658;SDS011;12006;42.666;23.326;2022-08-03T08:15:07;1.38;;;1.27;;
23658;SDS011;12006;42.666;23.326;2022-08-03T08:17:42;2.20;;;2.00;;
23658;SDS011;12006;42.666;23.326;2022-08-03T08:20:08;2.38;;;2.17;;
23658;SDS011;12006;42.666;23.326;2022-08-03T08:22:34;2.25;;;1.98;;
23658;SDS011;12006;42.666;23.326;2022-08-03T08:24:59;1.63;;;1.48;;
23658;SDS011;12006;42.666;23.326;2022-08-03T08:27:24;1.65;;;1.52;;
23658;SDS011;12006;42.666;23.326;2022-08-03T08:29:50;1.77;;;1.65;;
23658;SDS011;12006;42.666;23.326;2022-08-03T08:32:15;1.30;;;1.20;;
23658;SDS011;12006;42.666;23.326;2022-08-03T08:34:41;2.25;;;2.05;;
23658;SDS011;12006;42.666;23.326;2022-08-03T08:37:06;2.05;;;1.10;;
23658;SDS011;12006;42.666;23.326;2022-08-03T08:39:31;1.20;;;1.10;;
23658;SDS011;12006;42.666;23.326;2022-08-03T08:41:56;0.90;;;0.90;;
23658;SDS011;12006;42.666;23.326;2022-08-03T08:44:22;1.10;;;1.00;;
23658;SDS011;12006;42.666;23.326;2022-08-03T08:46:47;1.73;;;1.63;;
23658;SDS011;12006;42.666;23.326;2022-08-03T08:49:14;3.38;;;2.13;;
23658;SDS011;12006;42.666;23.326;2022-08-03T08:51:41;1.50;;;1.35;;
23658;SDS011;12006;42.666;23.326;2022-08-03T08:54:07;3.30;;;1.38;;
23658;SDS011;12006;42.666;23.326;2022-08-03T08:56:33;3.83;;;2.92;;
23658;SDS011;12006;42.666;23.326;2022-08-03T08:58:59;4.65;;;1.90;;
23658;SDS011;12006;42.666;23.326;2022-08-03T09:01:25;1.25;;;1.15;;
23658;SDS011;12006;42.666;23.326;2022-08-03T09:03:51;1.20;;;1.10;;
23658;SDS011;12006;42.666;23.326;2022-08-03T09:06:18;1.30;;;1.20;;
23658;SDS011;12006;42.666;23.326;2022-08-03T09:08:43;1.75;;;1.42;;
23658;SDS011;12006;42.666;23.326;2022-08-03T09:11:09;1.17;;;1.10;;
23658;SDS011;12006;42.666;23.326;2022-08-03T09:13:34;1.92;;;0.93;;
23658;SDS011;12006;42.666;23.326;2022-08-03T09:16:15;1.30;;;1.20;;
23658;SDS011;12006;42.666;23.326;2022-08-03T09:18:42;1.52;;;1.25;;
23658;SDS011;12006;42.666;23.326;2022-08-03T09:23:45;1.15;;;1.15;;
23658;SDS011;12006;42.666;23.326;2022-08-03T09:26:11;1.10;;;1.02;;
23658;SDS011;12006;42.666;23.326;2022-08-03T09:28:36;2.25;;;2.08;;
23658;SDS011;12006;42.666;23.326;2022-08-03T09:31:01;1.40;;;1.30;;
23658;SDS011;12006;42.666;23.326;2022-08-03T09:33:27;1.27;;;1.20;;
23658;SDS011;12006;42.666;23.326;2022-08-03T09:35:52;1.95;;;1.85;;
23658;SDS011;12006;42.666;23.326;2022-08-03T09:40:48;1.40;;;1.30;;
23658;SDS011;12006;42.666;23.326;2022-08-03T09:43:14;1.50;;;1.40;;
23658;SDS011;12006;42.666;23.326;2022-08-03T09:45:39;1.52;;;1.20;;
23658;SDS011;12006;42.666;23.326;2022-08-03T09:50:59;1.45;;;1.35;;
23658;SDS011;12006;42.666;23.326;2022-08-03T09:53:25;2.67;;;1.27;;
23658;SDS011;12006;42.666;23.326;2022-08-03T09:55:54;2.40;;;1.38;;
23658;SDS011;12006;42.666;23.326;2022-08-03T09:58:20;1.00;;;1.00;;
23658;SDS011;12006;42.666;23.326;2022-08-03T10:00:53;1.10;;;0.93;;
23658;SDS011;12006;42.666;23.326;2022-08-03T10:03:18;1.48;;;1.38;;
23658;SDS011;12006;42.666;23.326;2022-08-03T10:05:44;1.35;;;1.25;;
23658;SDS011;12006;42.666;23.326;2022-08-03T10:08:17;0.90;;;0.90;;
23658;SDS011;12006;42.666;23.326;2022-08-03T10:10:43;0.90;;;0.90;;
23658;SDS011;12006;42.666;23.326;2022-08-03T10:13:12;1.60;;;0.90;;
23658;SDS011;12006;42.666;23.326;2022-08-03T10:15:38;0.90;;;0.90;;
23658;SDS011;12006;42.666;23.326;2022-08-03T10:18:03;1.40;;;1.30;;
23658;SDS011;12006;42.666;23.326;2022-08-03T10:20:28;1.00;;;1.00;;
23658;SDS011;12006;42.666;23.326;2022-08-03T10:22:54;1.33;;;1.23;;
23658;SDS011;12006;42.666;23.326;2022-08-03T10:25:20;1.35;;;1.33;;
23658;SDS011;12006;42.666;23.326;2022-08-03T10:27:46;0.95;;;0.95;;
23658;SDS011;12006;42.666;23.326;2022-08-03T10:30:14;1.15;;;1.05;;
23658;SDS011;12006;42.666;23.326;2022-08-03T10:32:40;1.00;;;1.00;;
23658;SDS011;12006;42.666;23.326;2022-08-03T10:37:32;1.83;;;1.33;;
23658;SDS011;12006;42.666;23.326;2022-08-03T10:39:59;2.58;;;1.88;;
23658;SDS011;12006;42.666;23.326;2022-08-03T10:42:24;1.73;;;1.33;;
23658;SDS011;12006;42.666;23.326;2022-08-03T10:44:52;2.17;;;2.00;;
23658;SDS011;12006;42.666;23.326;2022-08-03T10:47:19;1.20;;;1.00;;
23658;SDS011;12006;42.666;23.326;2022-08-03T10:49:46;1.55;;;1.45;;
23658;SDS011;12006;42.666;23.326;2022-08-03T10:52:12;2.22;;;1.55;;
23658;SDS011;12006;42.666;23.326;2022-08-03T10:54:41;1.33;;;1.13;;
23658;SDS011;12006;42.666;23.326;2022-08-03T11:00:10;1.67;;;1.58;;
23658;SDS011;12006;42.666;23.326;2022-08-03T11:05:26;1.80;;;1.70;;
23658;SDS011;12006;42.666;23.326;2022-08-03T11:08:16;1.30;;;1.20;;
23658;SDS011;12006;42.666;23.326;2022-08-03T11:10:37;1.30;;;1.30;;
23658;SDS011;12006;42.666;23.326;2022-08-03T11:13:04;1.00;;;1.00;;
23658;SDS011;12006;42.666;23.326;2022-08-03T11:15:31;1.30;;;1.20;;
23658;SDS011;12006;42.666;23.326;2022-08-03T11:18:09;1.00;;;1.00;;
23658;SDS011;12006;42.666;23.326;2022-08-03T11:20:44;0.80;;;0.80;;
23658;SDS011;12006;42.666;23.326;2022-08-03T11:23:10;0.93;;;0.93;;
23658;SDS011;12006;42.666;23.326;2022-08-03T11:28:26;1.60;;;0.95;;
23658;SDS011;12006;42.666;23.326;2022-08-03T11:30:54;2.05;;;1.77;;
23658;SDS011;12006;42.666;23.326;2022-08-03T11:33:28;1.42;;;1.05;;
23658;SDS011;12006;42.666;23.326;2022-08-03T11:35:59;0.93;;;0.93;;
23658;SDS011;12006;42.666;23.326;2022-08-03T11:38:24;1.45;;;0.80;;
23658;SDS011;12006;42.666;23.326;2022-08-03T11:40:50;1.00;;;1.00;;
23658;SDS011;12006;42.666;23.326;2022-08-03T11:48:21;0.90;;;0.90;;
23658;SDS011;12006;42.666;23.326;2022-08-03T11:50:47;1.10;;;1.00;;
23658;SDS011;12006;42.666;23.326;2022-08-03T11:53:14;0.90;;;0.90;;
23658;SDS011;12006;42.666;23.326;2022-08-03T11:55:41;0.98;;;0.98;;
23658;SDS011;12006;42.666;23.326;2022-08-03T11:58:13;1.25;;;1.10;;
23658;SDS011;12006;42.666;23.326;2022-08-03T12:00:39;2.53;;;1.45;;
23658;SDS011;12006;42.666;23.326;2022-08-03T12:03:05;0.82;;;0.82;;
23658;SDS011;12006;42.666;23.326;2022-08-03T12:05:32;0.98;;;0.90;;
23658;SDS011;12006;42.666;23.326;2022-08-03T12:07:57;0.70;;;0.70;;
23658;SDS011;12006;42.666;23.326;2022-08-03T12:10:23;1.35;;;1.25;;
23658;SDS011;12006;42.666;23.326;2022-08-03T12:12:54;0.88;;;0.88;;
23658;SDS011;12006;42.666;23.326;2022-08-03T12:15:23;1.27;;;1.17;;
23658;SDS011;12006;42.666;23.326;2022-08-03T12:17:49;1.08;;;1.00;;
23658;SDS011;12006;42.666;23.326;2022-08-03T12:20:19;0.65;;;0.65;;
23658;SDS011;12006;42.666;23.326;2022-08-03T12:22:45;1.55;;;1.15;;
23658;SDS011;12006;42.666;23.326;2022-08-03T12:25:17;2.40;;;1.90;;
23658;SDS011;12006;42.666;23.326;2022-08-03T12:27:44;1.60;;;1.50;;
23658;SDS011;12006;42.666;23.326;2022-08-03T12:30:09;1.10;;;1.10;;
23658;SDS011;12006;42.666;23.326;2022-08-03T12:32:35;1.75;;;1.63;;
23658;SDS011;12006;42.666;23.326;2022-08-03T12:35:00;1.05;;;1.05;;
23658;SDS011;12006;42.666;23.326;2022-08-03T12:37:29;1.88;;;1.60;;
23658;SDS011;12006;42.666;23.326;2022-08-03T12:39:55;1.00;;;1.00;;
23658;SDS011;12006;42.666;23.326;2022-08-03T12:42:20;0.85;;;0.85;;
23658;SDS011;12006;42.666;23.326;2022-08-03T12:44:46;2.05;;;1.50;;
23658;SDS011;12006;42.666;23.326;2022-08-03T12:47:13;0.90;;;0.90;;
23658;SDS011;12006;42.666;23.326;2022-08-03T12:52:11;1.25;;;1.13;;
23658;SDS011;12006;42.666;23.326;2022-08-03T12:54:36;2.00;;;1.80;;
23658;SDS011;12006;42.666;23.326;2022-08-03T12:57:05;1.67;;;1.58;;
23658;SDS011;12006;42.666;23.326;2022-08-03T12:59:37;0.82;;;0.82;;
23658;SDS011;12006;42.666;23.326;2022-08-03T13:02:16;1.65;;;1.40;;
23658;SDS011;12006;42.666;23.326;2022-08-03T13:04:41;1.23;;;1.20;;
23658;SDS011;12006;42.666;23.326;2022-08-03T13:07:08;1.55;;;1.45;;
23658;SDS011;12006;42.666;23.326;2022-08-03T13:09:52;1.00;;;0.95;;
23658;SDS011;12006;42.666;23.326;2022-08-03T13:12:19;1.20;;;1.20;;
23658;SDS011;12006;42.666;23.326;2022-08-03T13:14:46;0.90;;;0.90;;
23658;SDS011;12006;42.666;23.326;2022-08-03T13:17:11;1.10;;;1.00;;
23658;SDS011;12006;42.666;23.326;2022-08-03T13:19:37;1.95;;;1.08;;
23658;SDS011;12006;42.666;23.326;2022-08-03T13:22:15;1.15;;;1.15;;
23658;SDS011;12006;42.666;23.326;2022-08-03T13:24:41;1.60;;;1.50;;
23658;SDS011;12006;42.666;23.326;2022-08-03T13:27:07;1.92;;;1.80;;
23658;SDS011;12006;42.666;23.326;2022-08-03T13:29:33;1.08;;;1.05;;
23658;SDS011;12006;42.666;23.326;2022-08-03T13:31:58;1.50;;;1.20;;
23658;SDS011;12006;42.666;23.326;2022-08-03T13:34:23;1.63;;;1.52;;
23658;SDS011;12006;42.666;23.326;2022-08-03T13:36:49;1.85;;;1.75;;
23658;SDS011;12006;42.666;23.326;2022-08-03T13:39:14;2.03;;;1.90;;
23658;SDS011;12006;42.666;23.326;2022-08-03T13:41:40;1.40;;;1.30;;
23658;SDS011;12006;42.666;23.326;2022-08-03T13:44:05;1.58;;;1.48;;
23658;SDS011;12006;42.666;23.326;2022-08-03T13:46:30;1.70;;;1.23;;
23658;SDS011;12006;42.666;23.326;2022-08-03T13:48:56;1.02;;;1.02;;
23658;SDS011;12006;42.666;23.326;2022-08-03T13:51:21;1.17;;;1.00;;
23658;SDS011;12006;42.666;23.326;2022-08-03T13:53:46;1.50;;;1.40;;
23658;SDS011;12006;42.666;23.326;2022-08-03T13:56:11;1.35;;;1.25;;
23658;SDS011;12006;42.666;23.326;2022-08-03T13:58:37;1.10;;;1.10;;
23658;SDS011;12006;42.666;23.326;2022-08-03T14:01:02;1.98;;;1.88;;
23658;SDS011;12006;42.666;23.326;2022-08-03T14:03:27;1.33;;;1.23;;
23658;SDS011;12006;42.666;23.326;2022-08-03T14:05:52;1.40;;;1.30;;
23658;SDS011;12006;42.666;23.326;2022-08-03T14:08:18;1.40;;;1.30;;
23658;SDS011;12006;42.666;23.326;2022-08-03T14:10:43;1.25;;;1.15;;
23658;SDS011;12006;42.666;23.326;2022-08-03T14:13:10;1.45;;;1.35;;
23658;SDS011;12006;42.666;23.326;2022-08-03T14:15:35;1.45;;;1.35;;
23658;SDS011;12006;42.666;23.326;2022-08-03T14:18:00;2.10;;;1.83;;
23658;SDS011;12006;42.666;23.326;2022-08-03T14:20:26;1.70;;;1.50;;
23658;SDS011;12006;42.666;23.326;2022-08-03T14:22:51;2.08;;;1.88;;
23658;SDS011;12006;42.666;23.326;2022-08-03T14:25:16;4.10;;;2.05;;
23658;SDS011;12006;42.666;23.326;2022-08-03T14:27:42;1.50;;;1.40;;
23658;SDS011;12006;42.666;23.326;2022-08-03T14:30:07;2.35;;;1.27;;
23658;SDS011;12006;42.666;23.326;2022-08-03T14:32:32;1.40;;;1.30;;
23658;SDS011;12006;42.666;23.326;2022-08-03T14:34:58;1.92;;;1.30;;
23658;SDS011;12006;42.666;23.326;2022-08-03T14:37:23;1.77;;;1.45;;
23658;SDS011;12006;42.666;23.326;2022-08-03T14:39:48;1.92;;;1.63;;
23658;SDS011;12006;42.666;23.326;2022-08-03T14:42:14;1.67;;;1.58;;
23658;SDS011;12006;42.666;23.326;2022-08-03T14:44:40;1.50;;;1.40;;
23658;SDS011;12006;42.666;23.326;2022-08-03T14:47:05;1.25;;;1.17;;
23658;SDS011;12006;42.666;23.326;2022-08-03T14:49:31;2.35;;;1.73;;
23658;SDS011;12006;42.666;23.326;2022-08-03T14:51:56;1.70;;;1.60;;
23658;SDS011;12006;42.666;23.326;2022-08-03T14:54:21;1.80;;;1.70;;
23658;SDS011;12006;42.666;23.326;2022-08-03T14:56:47;1.55;;;1.45;;
23658;SDS011;12006;42.666;23.326;2022-08-03T14:59:12;1.55;;;1.40;;
23658;SDS011;12006;42.666;23.326;2022-08-03T15:01:37;1.77;;;1.60;;
23658;SDS011;12006;42.666;23.326;2022-08-03T15:04:03;1.90;;;1.80;;
23658;SDS011;12006;42.666;23.326;2022-08-03T15:06:28;2.65;;;1.98;;
23658;SDS011;12006;42.666;23.326;2022-08-03T15:08:53;1.42;;;1.33;;
23658;SDS011;12006;42.666;23.326;2022-08-03T15:11:18;1.48;;;1.38;;